Portada
METAR-TAF:

METAR-TAF

Aeroports :

Johor Bahru, Malàisia

latitud: 01-38N, longitud: 103-40E, altitud: 37 m

Observació

L'informe es va fer fa 45 minuts, a les 12:00 UTC
Vent 4 kt del Sud/Sud-Oest, variant entre Sud/Sud-Est i Oest
Temperatura 28°C
Humitat 84%
Pressió 1007 hPa
Visibilitat 10 km o més
Escasses núvols a una alçada de 1700 ft, Cumulonimbus.

METAR: WMKJ 121200Z 20004KT 150V260 9999 FEW017CB 28/25 Q1007

Hora: 20:45 (12:45 UTC)

Pronòstic

L'informe es va fer fa 1 hora i 45 minuts, a les 11:00 UTC
Pronòstic vàlid del 12 a les 12 UTC al 13 a les 12 UTC
Vent 3 kt amb direcció variable
Visibilitat 10 km o més
Escasses núvols a una alçada de 1700 ft, Cumulonimbus.
Temporalment
l' 13 a les 05 UTC al 13 a les 09 UTC
Visibilitat: 4000 m
Escasses núvols a una alçada de 1700 ft, Cumulonimbus.
Núvols disperses a una alçada de 1800 ft
tempesta, pluja

TAF: WMKJ 121100Z 1212/1312 VRB03KT 9999 FEW017CB TEMPO 1305/1309 4000 TSRA FEW017CB SCT018

Observacions i pronòstics meteorològics de més de 4000 aeroports (METAR i TAF).

Les estacions disponibles són els punts grocs i vermells al mapa.

Posi el ratolí al punt desitjat per veure el nom de l'estació.

Feu clic per veure les observacions i els pronòstics meteorològics.

Per canviar el mapa: feu clic els botons verds amb una creu de color negre per apropar; al botó verd amb un guió per allunyar la imatge; o en les fletxes verdes per a mapes adjacents.


METAR-TAF: